Pagina principală
METAR-TAF:

METAR-TAF

Aeroporturi :

Rio de Janeiro, Rio de Janeiro, Brazilia

Latitudine: 22-59S, longitudine: 043-22W, elevație: 3 m

Observații meteo curente

Raportul a fost făcut în urmă cu 52 de minute, la 12:00 UTC
Vânt 5 kt de la Nord-est
Temperatură 29°C
Umiditate 48%
Presiune 1020 hPa
Vizibilitate de 10 km sau mai mult
nu există nori sub 1.500 m și nici cumulonimbus

METAR: SBJR 151200Z 05005KT CAVOK 29/17 Q1020

Ora: 09:52 (12:52 UTC)


TAF: lipsă

Observații și prognoze meteo pentru peste 4.000 de aeroporturi (rapoarte METAR și TAF).

Stațiile disponibile sunt reprezentate pe hartă prin puncte galbene și roșii.

Țineți indicatorul mouse-ului pe punctul dorit pentru a vedea denumirea stației.

Apoi, faceți clic pentru a vedea observațiile și prognozele meteorologice.

Pentru a schimba harta: Pentru mărire, faceți clic pe butoanele verzi cu cruce neagră; pentru micșorare, pe butonul verde cu o liniuță; pentru hărți învecinate, pe săgețile verzi.


METAR-TAF: